Time;durP1;ratioP1;P1;durP2;ratioP2;P2;SDS_P1;SDS_P2;PMS_P1;PMS_P2;Temp;Humidity;BMP_temperature;BMP_pressure;BME280_temperature;BME280_humidity;BME280_pressure;Samples;Min_cycle;Max_cycle;Signal;HPM_P1;HPM_P2
2021/12/24 00:02:37;;;;;;;3.15;1.85;;;;;;;3.77;100.00;99826.53;6309798;28;20056;-75
2021/12/24 00:05:38;;;;;;;3.63;1.90;;;;;;;3.83;100.00;99820.22;6307529;28;20055;-76
2021/12/24 00:08:43;;;;;;;4.15;2.47;;;;;;;3.78;100.00;99820.41;6309341;28;20036;-75
2021/12/24 00:11:44;;;;;;;4.70;2.60;;;;;;;3.79;100.00;99816.91;6308515;28;20415;-75
2021/12/24 00:14:51;;;;;;;3.53;2.13;;;;;;;3.85;100.00;99814.97;6309185;28;20421;-75
2021/12/24 00:18:00;;;;;;;1.90;1.38;;;;;;;3.81;100.00;99811.63;6313399;28;20063;-75
2021/12/24 00:37:43;;;;;;;4.10;2.60;;;;;;;3.88;100.00;99797.50;6313310;28;20072;-74
2021/12/24 00:40:48;;;;;;;3.10;1.98;;;;;;;3.91;100.00;99799.97;6321170;28;20445;-75
2021/12/24 00:43:49;;;;;;;5.40;2.05;;;;;;;3.91;100.00;99792.19;6321590;28;20048;-75
2021/12/24 00:46:51;;;;;;;2.58;1.90;;;;;;;3.88;100.00;99783.66;6321442;28;20665;-75
2021/12/24 00:49:52;;;;;;;2.88;2.13;;;;;;;3.91;100.00;99792.19;6319110;28;20048;-75
2021/12/24 00:53:01;;;;;;;4.15;2.05;;;;;;;3.99;100.00;99791.84;6296251;28;20052;-75
2021/12/24 00:56:05;;;;;;;3.03;2.28;;;;;;;3.93;100.00;99789.50;6296345;28;20135;-75
2021/12/24 00:59:06;;;;;;;3.35;2.08;;;;;;;3.97;100.00;99791.91;6296206;28;20064;-75
2021/12/24 01:02:08;;;;;;;3.03;2.10;;;;;;;3.94;100.00;99781.63;6302274;28;20517;-75
2021/12/24 01:05:10;;;;;;;5.00;1.90;;;;;;;3.99;100.00;99790.09;6321063;28;20518;-75
2021/12/24 01:08:14;;;;;;;5.97;2.78;;;;;;;4.03;100.00;99786.44;6320798;28;20388;-75
2021/12/24 01:11:18;;;;;;;4.95;2.40;;;;;;;4.03;100.00;99794.25;6320823;28;20400;-75
2021/12/24 01:14:20;;;;;;;4.00;2.05;;;;;;;4.00;100.00;99793.56;6320960;28;20052;-75
2021/12/24 01:17:32;;;;;;;4.10;2.55;;;;;;;4.03;100.00;99788.22;6321042;28;20055;-74
2021/12/24 01:20:41;;;;;;;3.53;2.47;;;;;;;4.05;100.00;99781.22;6323791;28;20572;-76
2021/12/24 01:23:49;;;;;;;;;;;;;;;4.09;100.00;99785.38;6326349;28;20052;-76
2021/12/24 01:27:00;;;;;;;2.72;1.90;;;;;;;4.10;100.00;99779.25;6325440;28;19923;-74
2021/12/24 01:30:10;;;;;;;5.63;2.92;;;;;;;4.09;100.00;99774.97;6325401;28;20511;-75
2021/12/24 01:40:06;;;;;;;5.25;2.10;;;;;;;4.24;100.00;99771.72;6325150;28;20465;-75
2021/12/24 01:43:08;;;;;;;3.67;2.38;;;;;;;4.25;100.00;99763.00;6325272;28;20059;-75
2021/12/24 01:46:09;;;;;;;3.45;2.30;;;;;;;4.38;100.00;99760.72;6325202;28;20052;-75
2021/12/24 01:49:11;;;;;;;2.70;1.55;;;;;;;4.28;100.00;99768.06;6325121;28;20044;-75
2021/12/24 01:52:14;;;;;;;3.33;1.75;;;;;;;4.31;100.00;99759.28;6322542;28;20498;-75
2021/12/24 01:55:17;;;;;;;3.78;2.15;;;;;;;4.39;100.00;99753.75;6325148;28;20051;-75
2021/12/24 01:58:21;;;;;;;4.53;1.83;;;;;;;4.40;100.00;99750.22;6324723;28;20048;-75
2021/12/24 02:01:27;;;;;;;4.20;2.22;;;;;;;4.44;100.00;99754.38;6324775;28;20055;-75
2021/12/24 02:04:28;;;;;;;2.75;1.55;;;;;;;4.52;100.00;99747.94;6324753;28;20051;-75
2021/12/24 02:07:29;;;;;;;4.15;1.95;;;;;;;4.51;100.00;99748.00;6324745;28;20051;-74
2021/12/24 02:10:31;;;;;;;4.15;2.17;;;;;;;4.51;100.00;99735.84;6324364;28;20051;-76
2021/12/24 02:13:34;;;;;;;3.65;1.65;;;;;;;4.50;100.00;99738.53;6324378;28;20423;-75
2021/12/24 02:16:45;;;;;;;3.83;1.70;;;;;;;4.58;100.00;99734.63;6316318;28;20045;-75
2021/12/24 02:29:44;;;;;;;2.65;2.00;;;;;;;4.71;100.00;99716.72;6323402;28;20044;-75
2021/12/24 02:32:45;;;;;;;4.03;2.90;;;;;;;4.73;100.00;99733.13;6323962;28;20495;-74
2021/12/24 02:35:48;;;;;;;3.67;2.03;;;;;;;4.77;100.00;99724.25;6323751;28;20059;-75
2021/12/24 02:38:50;;;;;;;5.63;2.78;;;;;;;4.83;100.00;99712.72;6323983;28;20040;-75
2021/12/24 02:41:51;;;;;;;5.72;2.58;;;;;;;4.86;100.00;99720.41;6323516;28;20054;-75
2021/12/24 02:44:54;;;;;;;2.83;2.00;;;;;;;4.86;100.00;99716.91;6323940;28;20060;-75
2021/12/24 02:48:12;;;;;;;3.53;2.28;;;;;;;4.88;100.00;99713.34;6323500;28;20044;-75
2021/12/24 02:54:34;;;;;;;6.38;2.25;;;;;;;4.92;100.00;99701.88;6313783;28;20078;-75
2021/12/24 02:57:38;;;;;;;4.18;1.48;;;;;;;4.99;100.00;99697.22;6298444;28;20055;-74
2021/12/24 03:00:39;;;;;;;3.70;1.83;;;;;;;4.93;100.00;99695.75;6308692;28;20126;-75
2021/12/24 03:03:42;;;;;;;5.18;2.13;;;;;;;5.05;100.00;99679.56;6323340;28;20048;-75
2021/12/24 03:06:47;;;;;;;3.80;2.17;;;;;;;5.11;100.00;99685.38;6323435;28;20090;-75
2021/12/24 03:09:48;;;;;;;7.35;2.58;;;;;;;5.09;100.00;99682.84;6323222;28;20049;-75
2021/12/24 03:12:52;;;;;;;3.00;2.13;;;;;;;5.13;100.00;99676.56;6323007;28;20051;-75
2021/12/24 03:15:56;;;;;;;3.47;1.77;;;;;;;5.12;100.00;99671.44;6323067;28;20063;-75
2021/12/24 03:18:58;;;;;;;2.67;2.03;;;;;;;5.17;100.00;99667.69;6322418;28;20094;-74
2021/12/24 03:22:12;;;;;;;5.45;2.88;;;;;;;5.16;100.00;99671.22;6322936;28;20056;-75
2021/12/24 03:25:15;;;;;;;4.32;2.67;;;;;;;5.23;100.00;99661.34;6322121;28;20400;-76
2021/12/24 03:28:16;;;;;;;4.05;2.42;;;;;;;5.21;100.00;99664.00;6322736;28;20055;-75
2021/12/24 03:31:17;;;;;;;5.35;2.78;;;;;;;5.23;100.00;99656.16;6317008;28;20044;-75
2021/12/24 03:34:22;;;;;;;4.10;2.50;;;;;;;5.33;100.00;99666.03;6320437;28;20059;-75
2021/12/24 03:37:25;;;;;;;3.63;2.15;;;;;;;5.41;100.00;99650.03;6308467;28;20051;-75
2021/12/24 03:40:26;;;;;;;5.10;2.42;;;;;;;5.39;100.00;99646.66;6321077;28;20056;-76
2021/12/24 03:43:28;;;;;;;4.22;2.83;;;;;;;5.41;100.00;99642.22;6322249;28;20399;-75
2021/12/24 03:46:36;;;;;;;5.60;2.75;;;;;;;5.41;100.00;99638.78;6322142;28;20052;-75
2021/12/24 03:49:44;;;;;;;9.77;2.85;;;;;;;5.39;100.00;99649.25;6322346;28;20040;-75
2021/12/24 03:53:05;;;;;;;5.00;2.65;;;;;;;5.46;100.00;99644.59;6320460;28;20130;-76
2021/12/24 03:56:06;;;;;;;4.15;2.33;;;;;;;5.49;100.00;99627.03;6320712;28;20066;-74
2021/12/24 03:59:08;;;;;;;4.57;2.92;;;;;;;5.47;100.00;99631.47;6322110;28;20040;-75
2021/12/24 04:02:10;;;;;;;5.55;3.17;;;;;;;5.47;100.00;99623.66;6321921;28;20044;-76
2021/12/24 04:05:11;;;;;;;4.65;2.53;;;;;;;5.48;100.00;99622.72;6321996;28;20048;-75
2021/12/24 04:08:14;;;;;;;5.60;2.95;;;;;;;5.46;100.00;99624.59;6321901;28;20051;-75
2021/12/24 04:11:15;;;;;;;3.67;2.75;;;;;;;5.48;100.00;99632.31;6321520;28;20434;-77
2021/12/24 04:14:17;;;;;;;5.03;2.63;;;;;;;5.55;100.00;99625.88;6317978;28;20045;-75
2021/12/24 04:17:18;;;;;;;4.75;2.90;;;;;;;5.57;100.00;99619.66;6314730;28;20048;-75
2021/12/24 04:27:07;;;;;;;6.53;3.00;;;;;;;5.64;100.00;99617.59;6311336;28;20052;-78
2021/12/24 04:30:13;;;;;;;4.35;1.92;;;;;;;5.67;100.00;99620.03;6321065;28;20499;-75
2021/12/24 04:33:20;;;;;;;6.22;2.70;;;;;;;5.70;100.00;99609.47;6321552;28;20059;-77
2021/12/24 04:36:40;;;;;;;5.97;2.58;;;;;;;5.70;100.00;99626.88;6296577;28;20202;-77
2021/12/24 04:39:53;;;;;;;4.57;2.58;;;;;;;5.69;100.00;99615.59;6315052;28;20039;-76
2021/12/24 04:53:19;;;;;;;4.35;2.33;;;;;;;5.81;100.00;99617.59;6298694;28;20049;-76
2021/12/24 05:03:01;;;;;;;5.32;2.38;;;;;;;5.97;100.00;99617.63;6316806;28;20469;-75
2021/12/24 05:06:14;;;;;;;2.75;2.08;;;;;;;6.05;100.00;99619.84;6306801;28;20048;-75
2021/12/24 05:09:21;;;;;;;3.55;2.08;;;;;;;6.03;100.00;99616.47;6325761;28;20040;-75
2021/12/24 05:12:24;;;;;;;4.15;1.90;;;;;;;6.03;100.00;99609.47;6304619;28;20419;-75
2021/12/24 05:15:27;;;;;;;5.93;2.08;;;;;;;6.17;100.00;99615.72;6300788;28;20051;-74
2021/12/24 05:18:35;;;;;;;3.47;2.25;;;;;;;6.14;100.00;99619.38;6300482;28;20091;-75
2021/12/24 05:21:36;;;;;;;3.05;2.00;;;;;;;6.15;100.00;99628.88;6300289;28;20059;-75
2021/12/24 05:24:37;;;;;;;2.97;1.98;;;;;;;6.17;100.00;99610.53;6304502;28;20461;-75
2021/12/24 05:27:40;;;;;;;3.20;2.13;;;;;;;6.21;100.00;99614.66;6325564;28;20059;-76
2021/12/24 05:30:41;;;;;;;3.83;2.70;;;;;;;6.29;100.00;99612.47;6325024;28;20047;-76
2021/12/24 05:33:43;;;;;;;6.20;2.45;;;;;;;6.28;100.00;99618.63;6325486;28;20048;-75
2021/12/24 05:36:45;;;;;;;3.50;1.92;;;;;;;6.33;100.00;99619.22;6325120;28;20418;-75
2021/12/24 05:39:46;;;;;;;2.42;1.75;;;;;;;6.25;100.00;99613.56;6325229;28;20048;-75
2021/12/24 05:42:49;;;;;;;4.57;2.50;;;;;;;6.29;100.00;99608.09;6324903;28;20048;-76
2021/12/24 05:45:50;;;;;;;4.25;2.28;;;;;;;6.42;100.00;99615.28;6325441;28;20044;-75
2021/12/24 05:48:52;;;;;;;4.43;2.40;;;;;;;6.49;100.00;99614.00;6324856;28;20491;-75
2021/12/24 05:51:53;;;;;;;8.02;3.40;;;;;;;6.52;100.00;99604.25;6323756;28;20048;-75
2021/12/24 05:54:54;;;;;;;5.45;2.95;;;;;;;6.64;100.00;99605.34;6323072;28;20045;-75
2021/12/24 05:57:57;;;;;;;4.00;2.40;;;;;;;6.63;100.00;99598.41;6324471;28;20047;-75
2021/12/24 06:00:59;;;;;;;7.70;2.75;;;;;;;6.69;100.00;99598.09;6324567;28;20044;-75
2021/12/24 06:04:01;;;;;;;5.03;3.47;;;;;;;6.68;100.00;99598.19;6323599;28;20056;-76
2021/12/24 06:07:02;;;;;;;5.68;3.05;;;;;;;6.74;100.00;99595.22;6324630;28;20052;-75
2021/12/24 06:10:04;;;;;;;5.82;3.17;;;;;;;6.70;100.00;99586.72;6324032;28;20051;-75
2021/12/24 06:13:07;;;;;;;7.22;2.92;;;;;;;6.78;100.00;99581.06;6324579;28;20048;-75
2021/12/24 06:16:09;;;;;;;8.15;3.65;;;;;;;6.92;100.00;99585.50;6322516;28;20048;-75
2021/12/24 06:19:11;;;;;;;6.07;2.92;;;;;;;6.84;100.00;99578.94;6324079;28;20055;-75
2021/12/24 06:22:12;;;;;;;8.85;3.47;;;;;;;6.96;100.00;99572.19;6323747;28;20516;-75
2021/12/24 06:25:14;;;;;;;9.05;2.55;;;;;;;6.92;100.00;99580.28;6322500;28;20054;-75
2021/12/24 06:28:17;;;;;;;9.38;3.65;;;;;;;7.00;100.00;99586.75;6323984;28;20067;-75
2021/12/24 06:31:18;;;;;;;5.90;2.78;;;;;;;7.00;100.00;99585.91;6323579;28;20055;-76
2021/12/24 06:34:20;;;;;;;7.75;2.95;;;;;;;7.03;100.00;99589.19;6316132;28;20052;-76
2021/12/24 06:37:22;;;;;;;9.00;2.97;;;;;;;7.00;100.00;99583.31;6323687;28;20048;-74
2021/12/24 06:40:23;;;;;;;4.43;2.63;;;;;;;7.01;100.00;99590.22;6323429;28;20044;-76
2021/12/24 06:43:26;;;;;;;7.32;3.33;;;;;;;7.05;100.00;99599.56;6323685;28;20052;-76
2021/12/24 06:46:28;;;;;;;5.55;3.03;;;;;;;7.06;100.00;99589.00;6323687;28;20052;-75
2021/12/24 06:49:29;;;;;;;5.65;2.95;;;;;;;7.11;100.00;99586.13;6323296;28;20048;-76
2021/12/24 06:52:30;;;;;;;4.78;2.25;;;;;;;7.07;100.00;99592.47;6323133;28;20487;-75
2021/12/24 06:55:32;;;;;;;6.30;3.50;;;;;;;7.06;100.00;99596.00;6311665;28;20055;-76
2021/12/24 06:58:35;;;;;;;4.22;2.72;;;;;;;7.07;100.00;99602.91;6308165;28;20055;-76
2021/12/24 07:01:36;;;;;;;6.05;2.80;;;;;;;7.13;100.00;99599.97;6323150;28;20053;-76
2021/12/24 07:04:37;;;;;;;4.72;2.10;;;;;;;7.11;100.00;99604.41;6323126;28;20048;-76
2021/12/24 07:07:39;;;;;;;5.00;2.97;;;;;;;7.10;100.00;99593.13;6323208;28;20051;-76
2021/12/24 07:10:40;;;;;;;5.25;2.95;;;;;;;7.25;100.00;99601.00;6322576;28;20058;-76
2021/12/24 07:13:43;;;;;;;8.35;3.35;;;;;;;7.18;100.00;99597.09;6323101;28;20051;-76
2021/12/24 07:16:44;;;;;;;5.22;2.40;;;;;;;7.26;100.00;99598.31;6322808;28;20052;-76
2021/12/24 07:19:46;;;;;;;5.85;3.35;;;;;;;7.21;100.00;99604.72;6322698;28;20051;-76
2021/12/24 07:22:47;;;;;;;5.80;3.25;;;;;;;7.29;100.00;99605.13;6322696;28;20047;-75
2021/12/24 07:25:48;;;;;;;6.78;3.28;;;;;;;7.31;100.00;99598.03;6320992;28;20048;-75
2021/12/24 07:28:51;;;;;;;7.85;2.72;;;;;;;7.31;100.00;99603.25;6322630;28;20051;-76
2021/12/24 07:31:52;;;;;;;6.13;2.28;;;;;;;7.32;100.00;99603.19;6322470;28;20071;-76
2021/12/24 07:34:53;;;;;;;5.80;3.05;;;;;;;7.37;100.00;99608.16;6322553;28;20522;-76
2021/12/24 07:37:55;;;;;;;6.85;3.40;;;;;;;7.34;100.00;99613.53;6322546;28;20047;-75
2021/12/24 07:40:56;;;;;;;7.35;1.80;;;;;;;7.31;100.00;99616.31;6318773;28;20049;-75
2021/12/24 07:43:59;;;;;;;6.78;2.95;;;;;;;7.35;100.00;99607.38;6307170;28;20052;-76
2021/12/24 07:47:02;;;;;;;5.10;3.05;;;;;;;7.33;100.00;99615.31;6309332;28;20045;-76
2021/12/24 07:50:17;;;;;;;8.20;3.08;;;;;;;7.34;100.00;99613.53;6308701;28;20065;-76
2021/12/24 07:53:19;;;;;;;6.88;3.28;;;;;;;7.40;100.00;99605.34;6309074;28;20103;-76
2021/12/24 07:56:20;;;;;;;9.68;4.13;;;;;;;7.36;100.00;99609.09;6304549;28;20045;-76
2021/12/24 07:59:23;;;;;;;7.75;3.80;;;;;;;7.42;100.00;99620.94;6296948;28;20059;-75
2021/12/24 08:02:26;;;;;;;9.20;4.32;;;;;;;7.41;100.00;99621.88;6299301;28;20071;-76
2021/12/24 08:05:28;;;;;;;7.78;3.45;;;;;;;7.34;100.00;99624.84;6307780;28;20415;-76
2021/12/24 08:08:30;;;;;;;4.40;3.08;;;;;;;7.37;100.00;99611.59;6307512;28;20059;-75
2021/12/24 08:11:31;;;;;;;7.60;3.47;;;;;;;7.37;100.00;99603.75;6308734;28;20036;-76
2021/12/24 08:14:34;;;;;;;8.93;4.32;;;;;;;7.41;100.00;99606.19;6308530;28;20530;-76
2021/12/24 08:17:36;;;;;;;4.60;2.58;;;;;;;7.35;100.00;99617.84;6311101;28;20051;-76
2021/12/24 08:20:37;;;;;;;7.53;3.70;;;;;;;7.41;100.00;99620.09;6310190;28;20397;-75
2021/12/24 08:23:39;;;;;;;8.55;3.78;;;;;;;7.39;100.00;99621.94;6320063;28;20052;-75
2021/12/24 08:26:41;;;;;;;6.20;3.95;;;;;;;7.35;100.00;99620.44;6318601;28;20058;-76
2021/12/24 08:29:43;;;;;;;8.98;3.72;;;;;;;7.36;100.00;99622.16;6314056;28;20047;-76
2021/12/24 08:32:45;;;;;;;7.65;3.72;;;;;;;7.35;100.00;99625.66;6320381;28;20048;-77
2021/12/24 08:35:46;;;;;;;7.72;4.32;;;;;;;7.33;100.00;99628.38;6320746;28;20048;-76
2021/12/24 08:38:48;;;;;;;10.80;4.15;;;;;;;7.31;100.00;99637.22;6321078;28;20491;-76
2021/12/24 08:41:54;;;;;;;7.15;3.40;;;;;;;7.32;100.00;99638.94;6319877;28;20051;-76
2021/12/24 08:44:57;;;;;;;8.63;3.67;;;;;;;7.35;100.00;99636.97;6321375;28;20059;-76
2021/12/24 08:47:58;;;;;;;5.22;3.17;;;;;;;7.34;100.00;99634.44;6321140;28;20071;-76
2021/12/24 08:50:59;;;;;;;7.07;3.80;;;;;;;7.33;100.00;99641.44;6320876;28;20044;-75
2021/12/24 08:54:01;;;;;;;7.47;3.85;;;;;;;7.36;100.00;99633.44;6321482;28;20055;-77
2021/12/24 08:57:04;;;;;;;6.53;3.38;;;;;;;7.31;100.00;99640.72;6304170;28;20055;-76
2021/12/24 09:00:09;;;;;;;6.07;3.22;;;;;;;7.35;100.00;99638.75;6317420;28;20044;-76
2021/12/24 09:03:11;;;;;;;5.30;3.17;;;;;;;7.41;100.00;99638.41;6315678;28;20040;-76
2021/12/24 09:06:12;;;;;;;3.75;2.38;;;;;;;7.37;100.00;99629.91;6316307;28;20423;-77
2021/12/24 09:09:13;;;;;;;8.18;2.42;;;;;;;7.39;100.00;99635.03;6319265;28;20050;-81
2021/12/24 09:12:15;;;;;;;5.13;2.35;;;;;;;7.39;100.00;99637.63;6314985;28;20040;-76
2021/12/24 09:15:19;;;;;;;3.88;2.17;;;;;;;7.38;100.00;99631.56;6317578;28;20431;-77
2021/12/24 09:18:20;;;;;;;4.18;1.90;;;;;;;7.37;100.00;99631.66;6321014;28;20051;-76
2021/12/24 09:21:23;;;;;;;4.47;2.10;;;;;;;7.40;100.00;99622.78;6316999;28;20044;-77
2021/12/24 09:24:25;;;;;;;5.65;2.30;;;;;;;7.36;100.00;99635.22;6314903;28;20048;-75
2021/12/24 09:27:26;;;;;;;6.15;2.97;;;;;;;7.39;100.00;99637.63;6313528;28;20051;-76
2021/12/24 09:30:30;;;;;;;4.43;2.35;;;;;;;7.41;100.00;99661.94;6318475;28;20044;-76
2021/12/24 09:33:31;;;;;;;5.18;2.90;;;;;;;7.39;100.00;99637.63;6312387;28;20151;-76
2021/12/24 09:36:32;;;;;;;4.80;2.13;;;;;;;7.40;100.00;99636.69;6312061;28;20439;-78
2021/12/24 09:39:34;;;;;;;5.28;2.97;;;;;;;7.43;100.00;99640.91;6321386;28;20052;-78
2021/12/24 09:42:36;;;;;;;3.50;2.00;;;;;;;7.45;100.00;99646.88;6324782;28;20055;-78
2021/12/24 09:45:39;;;;;;;3.28;1.73;;;;;;;7.43;100.00;99636.53;6325783;28;20055;-78
2021/12/24 09:48:41;;;;;;;2.97;2.03;;;;;;;7.43;100.00;99636.53;6320953;28;20052;-78
2021/12/24 09:51:44;;;;;;;3.67;1.73;;;;;;;7.41;100.00;99629.72;6325049;28;20040;-78
2021/12/24 09:54:47;;;;;;;3.72;2.20;;;;;;;7.40;100.00;99639.31;6325118;28;20059;-77
2021/12/24 09:57:49;;;;;;;3.67;1.77;;;;;;;7.37;100.00;99644.72;6308348;28;20514;-77
2021/12/24 10:00:52;;;;;;;3.63;1.90;;;;;;;7.40;100.00;99672.44;6313656;28;20051;-80
2021/12/24 10:04:02;;;;;;;4.82;2.83;;;;;;;7.40;100.00;99641.09;6322796;28;20048;-78
2021/12/24 10:07:04;;;;;;;;;;;;;;;7.34;100.00;99639.69;6322370;28;20048;-77
2021/12/24 10:10:07;;;;;;;2.92;2.00;;;;;;;7.29;100.00;99639.09;6306682;28;19920;-76
2021/12/24 10:13:30;;;;;;;4.80;1.90;;;;;;;7.34;100.00;99637.91;6299580;28;20177;-76
2021/12/24 10:16:33;;;;;;;3.30;2.10;;;;;;;7.30;100.00;99635.56;6317863;28;20052;-79
2021/12/24 10:19:43;;;;;;;3.47;2.35;;;;;;;7.25;100.00;99654.09;6324387;28;20048;-76
2021/12/24 10:22:46;;;;;;;5.13;2.45;;;;;;;7.25;100.00;99643.66;6324448;28;20092;-77
2021/12/24 10:25:48;;;;;;;5.38;2.42;;;;;;;7.25;100.00;99651.50;6324642;28;20048;-77
2021/12/24 10:28:55;;;;;;;2.15;1.20;;;;;;;7.19;100.00;99648.41;6322513;28;20415;-78
2021/12/24 10:31:59;;;;;;;2.60;1.67;;;;;;;7.19;100.00;99666.69;6316115;28;20048;-77
2021/12/24 10:35:01;;;;;;;3.80;0.98;;;;;;;6.56;100.00;99693.66;6324251;28;20048;-77
2021/12/24 10:38:13;;;;;;;8.18;4.40;;;;;;;5.89;100.00;99721.47;6324402;28;20059;-76
2021/12/24 10:41:14;;;;;;;2.30;0.73;;;;;;;5.44;100.00;99694.16;6323991;28;20519;-77
2021/12/24 10:44:17;;;;;;;0.50;0.50;;;;;;;5.24;100.00;99705.56;6324083;28;20052;-77
2021/12/24 10:47:22;;;;;;;0.65;0.40;;;;;;;5.03;100.00;99711.78;6323661;28;20446;-76
2021/12/24 10:50:30;;;;;;;0.50;0.40;;;;;;;4.89;100.00;99712.41;6315045;28;20407;-76
2021/12/24 10:53:34;;;;;;;2.00;1.52;;;;;;;4.80;100.00;99708.47;6323716;28;20051;-77
2021/12/24 10:56:36;;;;;;;0.75;0.60;;;;;;;4.83;100.00;99715.31;6322949;28;20154;-77
2021/12/24 10:59:41;;;;;;;0.55;0.50;;;;;;;4.79;100.00;99706.81;6323443;28;20495;-78
2021/12/24 11:02:49;;;;;;;0.60;0.60;;;;;;;4.61;100.00;99694.63;6323875;28;20044;-77
2021/12/24 11:05:52;;;;;;;0.35;0.22;;;;;;;4.56;100.00;99709.63;6320214;28;20052;-77
2021/12/24 11:08:55;;;;;;;0.30;0.30;;;;;;;4.47;100.00;99729.09;6314491;28;20471;-75
2021/12/24 11:11:58;;;;;;;0.20;0.20;;;;;;;4.40;100.00;99726.81;6312352;28;20589;-73
2021/12/24 11:15:00;;;;;;;1.38;0.30;;;;;;;4.35;100.00;99732.22;6305133;28;20079;-76
2021/12/24 11:18:06;;;;;;;0.20;0.20;;;;;;;4.31;100.00;99738.47;6318434;28;20522;-76
2021/12/24 11:21:09;;;;;;;0.22;0.22;;;;;;;4.21;100.00;99742.38;6322826;28;20040;-76
2021/12/24 11:24:11;;;;;;;1.85;0.30;;;;;;;4.15;100.00;99753.91;6322627;28;20044;-77
2021/12/24 11:27:13;;;;;;;0.43;0.40;;;;;;;4.07;100.00;99774.19;6308954;28;20052;-76
2021/12/24 11:30:15;;;;;;;0.40;0.40;;;;;;;4.04;100.00;99769.09;6310597;28;20174;-78
2021/12/24 11:33:20;;;;;;;1.92;0.50;;;;;;;3.94;100.00;99781.63;6315486;28;20126;-77
2021/12/24 11:36:25;;;;;;;1.65;0.30;;;;;;;3.92;100.00;99780.03;6314702;28;20551;-76
2021/12/24 11:39:26;;;;;;;1.33;0.35;;;;;;;3.71;100.00;99787.78;6322301;28;20055;-75
2021/12/24 11:42:32;;;;;;;0.38;0.38;;;;;;;3.51;100.00;99783.41;6322218;28;20515;-74
2021/12/24 11:45:34;;;;;;;0.43;0.32;;;;;;;3.48;100.00;99790.47;6311463;28;20052;-75
2021/12/24 11:48:37;;;;;;;0.28;0.28;;;;;;;3.53;100.00;99796.31;6307996;28;20048;-75
2021/12/24 11:51:40;;;;;;;0.40;0.22;;;;;;;3.33;100.00;99810.09;6310778;28;20514;-75
2021/12/24 11:54:42;;;;;;;0.40;0.32;;;;;;;3.27;100.00;99823.28;6312831;28;20132;-75
2021/12/24 11:57:59;;;;;;;0.30;0.30;;;;;;;3.26;100.00;99826.81;6310235;28;20079;-75
2021/12/24 12:01:05;;;;;;;0.25;0.25;;;;;;;3.24;100.00;99828.63;6320219;28;20076;-75
2021/12/24 12:04:15;;;;;;;0.30;0.30;;;;;;;3.21;100.00;99824.38;6316281;28;20139;-74
2021/12/24 12:07:18;;;;;;;0.40;0.32;;;;;;;3.08;100.00;99823.16;6321987;28;20050;-74
2021/12/24 12:10:50;;;;;;;0.70;0.40;;;;;;;3.01;100.00;99812.16;6321642;28;20187;-69
2021/12/24 12:13:55;;;;;;;0.55;0.45;;;;;;;3.10;100.00;99821.34;6320930;28;20070;-74
2021/12/24 12:17:00;;;;;;;0.30;0.30;;;;;;;3.04;100.00;99818.97;6318603;28;20419;-74
2021/12/24 12:20:03;;;;;;;0.70;0.43;;;;;;;3.01;100.00;99827.72;6316350;28;20044;-75
2021/12/24 12:23:09;;;;;;;0.82;0.50;;;;;;;2.99;100.00;99820.91;6320906;28;20048;-74
2021/12/24 12:26:41;;;;;;;1.77;0.80;;;;;;;2.98;100.00;99820.06;6321517;28;20055;-75
2021/12/24 12:29:44;;;;;;;1.08;0.70;;;;;;;2.95;100.00;99824.50;6320742;28;20051;-75
2021/12/24 12:32:46;;;;;;;0.20;0.20;;;;;;;2.98;100.00;99827.00;6321494;28;20052;-75
2021/12/24 12:35:50;;;;;;;1.10;0.93;;;;;;;2.97;100.00;99836.53;6321295;28;20522;-73
2021/12/24 12:38:52;;;;;;;0.20;0.20;;;;;;;2.78;100.00;99838.13;6320120;28;20141;-75
2021/12/24 12:41:53;;;;;;;0.68;0.68;;;;;;;2.56;100.00;99837.19;6320837;28;20097;-74
2021/12/24 12:44:56;;;;;;;0.90;0.40;;;;;;;2.65;100.00;99839.44;6321592;28;20052;-74
2021/12/24 12:47:59;;;;;;;1.15;0.60;;;;;;;2.61;100.00;99843.06;6320924;28;20047;-74
2021/12/24 12:51:02;;;;;;;1.13;0.57;;;;;;;2.56;100.00;99845.81;6319959;28;20036;-74
2021/12/24 12:54:42;;;;;;;0.65;0.55;;;;;;;2.47;100.00;99852.16;6318901;28;20048;-75
2021/12/24 12:57:44;;;;;;;1.77;0.52;;;;;;;2.43;100.00;99858.34;6282836;28;20060;-75
2021/12/24 13:01:03;;;;;;;0.40;0.40;;;;;;;2.48;100.00;99859.03;6312218;28;20098;-75
2021/12/24 13:04:12;;;;;;;0.73;0.63;;;;;;;2.51;100.00;99865.88;6321011;28;20048;-75
2021/12/24 13:07:22;;;;;;;1.15;0.70;;;;;;;2.27;100.00;99858.03;6320873;28;20556;-73
2021/12/24 13:10:23;;;;;;;0.60;0.60;;;;;;;2.32;100.00;99869.97;6295810;28;20045;-73
2021/12/24 13:13:25;;;;;;;0.50;0.50;;;;;;;2.32;100.00;99865.66;6306624;28;20051;-74
2021/12/24 13:16:32;;;;;;;0.80;0.55;;;;;;;2.21;100.00;99883.28;6307617;28;20045;-74
2021/12/24 13:19:58;;;;;;;1.17;0.80;;;;;;;2.23;100.00;99879.75;6324731;28;20048;-74
2021/12/24 13:23:02;;;;;;;0.57;0.50;;;;;;;2.11;100.00;99887.94;6322535;28;20044;-73
2021/12/24 13:26:09;;;;;;;1.10;0.93;;;;;;;2.01;100.00;99902.94;6324579;28;20048;-74
2021/12/24 13:29:16;;;;;;;0.60;0.60;;;;;;;1.81;100.00;99905.28;6302055;28;20056;-73
2021/12/24 13:32:17;;;;;;;1.35;0.88;;;;;;;1.78;100.00;99908.84;6311100;28;20129;-73
2021/12/24 13:35:21;;;;;;;1.33;0.57;;;;;;;1.88;100.00;99914.56;6325384;28;20044;-73
2021/12/24 13:38:26;;;;;;;1.60;1.48;;;;;;;1.95;100.00;99916.09;6321827;28;20450;-77
2021/12/24 13:41:27;;;;;;;1.90;1.17;;;;;;;1.83;100.00;99921.66;6313663;28;20128;-76
2021/12/24 13:44:31;;;;;;;1.75;1.10;;;;;;;1.84;100.00;99925.09;6310261;28;20055;-77
2021/12/24 13:47:50;;;;;;;1.52;0.90;;;;;;;1.97;100.00;99932.44;6322253;28;20055;-77
2021/12/24 13:54:34;;;;;;;1.35;0.80;;;;;;;2.02;100.00;99940.06;6324997;28;20428;-79
2021/12/24 13:57:35;;;;;;;1.00;0.90;;;;;;;1.96;100.00;99943.69;6322985;28;20048;-75
2021/12/24 14:00:40;;;;;;;0.93;0.70;;;;;;;1.85;100.00;99953.53;6324655;28;20055;-75
2021/12/24 14:03:41;;;;;;;1.52;1.00;;;;;;;1.77;100.00;99950.31;6324974;28;20055;-75
2021/12/24 14:06:45;;;;;;;0.88;0.77;;;;;;;1.83;100.00;99957.91;6317838;28;20048;-73
2021/12/24 14:09:48;;;;;;;2.25;0.90;;;;;;;1.86;100.00;99964.72;6317200;28;20055;-72
2021/12/24 14:12:49;;;;;;;1.48;1.13;;;;;;;1.68;100.00;99964.41;6320265;28;20040;-73
2021/12/24 14:16:02;;;;;;;0.80;0.80;;;;;;;1.67;100.00;99969.59;6320941;28;20048;-73
2021/12/24 14:19:12;;;;;;;1.52;1.10;;;;;;;1.60;100.00;99981.06;6317122;28;20488;-73
2021/12/24 14:22:16;;;;;;;1.08;0.98;;;;;;;1.69;100.00;99984.22;6323910;28;20411;-73
2021/12/24 14:25:19;;;;;;;1.40;1.10;;;;;;;1.80;100.00;99980.47;6323356;28;20051;-73
2021/12/24 14:28:22;;;;;;;1.63;1.02;;;;;;;1.75;100.00;99983.19;6321829;28;20130;-73
2021/12/24 14:31:23;;;;;;;1.08;0.75;;;;;;;1.69;100.00;99996.34;6323722;28;20482;-73
2021/12/24 14:34:30;;;;;;;2.70;1.30;;;;;;;1.75;100.00;100007.34;6322032;28;20052;-73
2021/12/24 14:37:35;;;;;;;5.07;1.00;;;;;;;1.71;100.00;100004.88;6318891;28;20048;-73
2021/12/24 14:40:39;;;;;;;1.60;1.02;;;;;;;1.61;100.00;100017.25;6316592;28;20048;-73
2021/12/24 14:43:41;;;;;;;1.40;0.65;;;;;;;1.56;100.00;100020.88;6318182;28;20051;-73
2021/12/24 14:46:56;;;;;;;1.60;0.85;;;;;;;1.67;100.00;100024.84;6309167;28;20044;-73
2021/12/24 14:50:06;;;;;;;0.80;0.70;;;;;;;1.71;100.00;100039.41;6323579;28;20056;-72
2021/12/24 14:53:10;;;;;;;0.68;0.52;;;;;;;1.67;100.00;100036.94;6323496;28;20054;-73
2021/12/24 14:56:15;;;;;;;1.48;0.70;;;;;;;1.56;100.00;100039.84;6323221;28;20130;-73
2021/12/24 14:59:17;;;;;;;0.50;0.50;;;;;;;1.53;100.00;100048.53;6314644;28;20055;-73
2021/12/24 15:02:18;;;;;;;0.75;0.45;;;;;;;1.50;100.00;100043.47;6311485;28;20049;-73
2021/12/24 15:05:32;;;;;;;0.57;0.45;;;;;;;1.55;100.00;100050.25;6298268;28;20052;-74
2021/12/24 15:08:35;;;;;;;1.13;0.80;;;;;;;1.59;100.00;100060.47;6304433;28;20043;-73
2021/12/24 15:11:39;;;;;;;1.98;0.75;;;;;;;1.64;100.00;100061.19;6321792;28;20048;-73
2021/12/24 15:14:41;;;;;;;1.40;0.73;;;;;;;1.61;100.00;100065.63;6321331;28;20439;-73
2021/12/24 15:17:45;;;;;;;3.67;0.80;;;;;;;1.49;100.00;100072.81;6322710;28;20048;-73
2021/12/24 15:20:46;;;;;;;1.73;0.88;;;;;;;1.43;100.00;100085.09;6322033;28;20625;-72
2021/12/24 15:23:51;;;;;;;0.88;0.45;;;;;;;1.29;100.00;100094.94;6319894;28;20051;-73
2021/12/24 15:26:53;;;;;;;6.18;0.90;;;;;;;1.25;100.00;100097.59;6317331;28;20537;-73
2021/12/24 15:29:55;;;;;;;0.88;0.82;;;;;;;1.25;100.00;100084.66;6320601;28;20052;-72
2021/12/24 15:32:56;;;;;;;1.90;0.63;;;;;;;1.39;100.00;100101.59;6306928;28;20040;-73